sensor_id;sensor_type;location;lat;lon;timestamp;temperature;humidity
51841;DHT22;37888;53.246;6.658;2023-05-29T00:00:22;8.50;99.90
51841;DHT22;37888;53.246;6.658;2023-05-29T00:02:52;8.50;99.90
51841;DHT22;37888;53.246;6.658;2023-05-29T00:05:18;8.50;99.90
51841;DHT22;37888;53.246;6.658;2023-05-29T00:07:44;8.80;99.90
51841;DHT22;37888;53.246;6.658;2023-05-29T00:10:11;8.50;99.90
51841;DHT22;37888;53.246;6.658;2023-05-29T00:12:39;8.50;99.90
51841;DHT22;37888;53.246;6.658;2023-05-29T00:15:06;8.50;99.90
51841;DHT22;37888;53.246;6.658;2023-05-29T00:17:34;8.40;99.90
51841;DHT22;37888;53.246;6.658;2023-05-29T00:20:00;8.40;99.90
51841;DHT22;37888;53.246;6.658;2023-05-29T00:22:27;8.40;99.90
51841;DHT22;37888;53.246;6.658;2023-05-29T00:24:53;8.30;99.90
51841;DHT22;37888;53.246;6.658;2023-05-29T00:27:19;8.30;99.90
51841;DHT22;37888;53.246;6.658;2023-05-29T00:29:45;8.20;99.90
51841;DHT22;37888;53.246;6.658;2023-05-29T00:32:11;8.20;99.90
51841;DHT22;37888;53.246;6.658;2023-05-29T00:34:37;8.20;99.90
51841;DHT22;37888;53.246;6.658;2023-05-29T00:37:03;8.20;99.90
51841;DHT22;37888;53.246;6.658;2023-05-29T00:39:29;8.20;99.90
51841;DHT22;37888;53.246;6.658;2023-05-29T00:41:56;8.10;99.90
51841;DHT22;37888;53.246;6.658;2023-05-29T00:44:22;8.10;99.90
51841;DHT22;37888;53.246;6.658;2023-05-29T00:46:49;8.10;99.90
51841;DHT22;37888;53.246;6.658;2023-05-29T00:49:22;8.10;99.90
51841;DHT22;37888;53.246;6.658;2023-05-29T00:51:52;8.00;99.90
51841;DHT22;37888;53.246;6.658;2023-05-29T00:54:26;8.00;99.90
51841;DHT22;37888;53.246;6.658;2023-05-29T00:56:52;7.90;99.90
51841;DHT22;37888;53.246;6.658;2023-05-29T00:59:19;7.90;99.90
51841;DHT22;37888;53.246;6.658;2023-05-29T01:01:52;7.80;99.90
51841;DHT22;37888;53.246;6.658;2023-05-29T01:04:18;7.80;99.90
51841;DHT22;37888;53.246;6.658;2023-05-29T01:06:45;7.80;99.90
51841;DHT22;37888;53.246;6.658;2023-05-29T01:09:11;7.80;99.90
51841;DHT22;37888;53.246;6.658;2023-05-29T01:11:54;7.80;99.90
51841;DHT22;37888;53.246;6.658;2023-05-29T01:17:17;7.80;99.90
51841;DHT22;37888;53.246;6.658;2023-05-29T01:22:46;7.80;99.90
51841;DHT22;37888;53.246;6.658;2023-05-29T01:28:47;7.70;99.90
51841;DHT22;37888;53.246;6.658;2023-05-29T01:31:20;7.70;99.90
51841;DHT22;37888;53.246;6.658;2023-05-29T01:33:58;7.70;99.90
51841;DHT22;37888;53.246;6.658;2023-05-29T01:36:25;7.80;99.90
51841;DHT22;37888;53.246;6.658;2023-05-29T01:38:51;7.80;99.90
51841;DHT22;37888;53.246;6.658;2023-05-29T01:41:19;7.80;99.90
51841;DHT22;37888;53.246;6.658;2023-05-29T01:43:46;7.90;99.90
51841;DHT22;37888;53.246;6.658;2023-05-29T01:46:16;7.80;99.90
51841;DHT22;37888;53.246;6.658;2023-05-29T01:48:44;7.80;99.90
51841;DHT22;37888;53.246;6.658;2023-05-29T01:51:11;7.80;99.90
51841;DHT22;37888;53.246;6.658;2023-05-29T01:53:41;7.90;99.90
51841;DHT22;37888;53.246;6.658;2023-05-29T01:56:08;7.90;99.90
51841;DHT22;37888;53.246;6.658;2023-05-29T01:58:37;7.90;99.90
51841;DHT22;37888;53.246;6.658;2023-05-29T02:01:03;7.90;99.90
51841;DHT22;37888;53.246;6.658;2023-05-29T02:03:30;7.90;99.90
51841;DHT22;37888;53.246;6.658;2023-05-29T02:05:58;7.90;99.90
51841;DHT22;37888;53.246;6.658;2023-05-29T02:08:24;7.90;99.90
51841;DHT22;37888;53.246;6.658;2023-05-29T02:10:50;7.90;99.90
51841;DHT22;37888;53.246;6.658;2023-05-29T02:13:16;7.90;99.90
51841;DHT22;37888;53.246;6.658;2023-05-29T02:15:43;7.90;99.90
51841;DHT22;37888;53.246;6.658;2023-05-29T02:18:10;7.90;99.90
51841;DHT22;37888;53.246;6.658;2023-05-29T02:20:38;7.90;99.90
51841;DHT22;37888;53.246;6.658;2023-05-29T02:23:04;7.90;99.90
51841;DHT22;37888;53.246;6.658;2023-05-29T02:25:30;7.90;99.90
51841;DHT22;37888;53.246;6.658;2023-05-29T02:27:56;7.90;99.90
51841;DHT22;37888;53.246;6.658;2023-05-29T02:30:22;7.80;99.90
51841;DHT22;37888;53.246;6.658;2023-05-29T02:32:49;7.80;99.90
51841;DHT22;37888;53.246;6.658;2023-05-29T02:35:15;7.80;99.90
51841;DHT22;37888;53.246;6.658;2023-05-29T02:37:42;7.70;99.90
51841;DHT22;37888;53.246;6.658;2023-05-29T02:40:08;7.60;99.90
51841;DHT22;37888;53.246;6.658;2023-05-29T02:42:38;7.60;99.90
51841;DHT22;37888;53.246;6.658;2023-05-29T02:45:05;7.60;99.90
51841;DHT22;37888;53.246;6.658;2023-05-29T02:47:31;7.60;99.90
51841;DHT22;37888;53.246;6.658;2023-05-29T02:49:57;7.60;99.90
51841;DHT22;37888;53.246;6.658;2023-05-29T02:52:23;7.60;99.90
51841;DHT22;37888;53.246;6.658;2023-05-29T02:54:49;7.60;99.90
51841;DHT22;37888;53.246;6.658;2023-05-29T02:57:15;7.60;99.90
51841;DHT22;37888;53.246;6.658;2023-05-29T02:59:41;7.60;99.90
51841;DHT22;37888;53.246;6.658;2023-05-29T03:02:09;7.70;99.90
51841;DHT22;37888;53.246;6.658;2023-05-29T03:04:35;7.70;99.90
51841;DHT22;37888;53.246;6.658;2023-05-29T03:07:01;7.80;99.90
51841;DHT22;37888;53.246;6.658;2023-05-29T03:09:27;7.70;99.90
51841;DHT22;37888;53.246;6.658;2023-05-29T03:11:52;7.80;99.90
51841;DHT22;37888;53.246;6.658;2023-05-29T03:14:18;7.80;99.90
51841;DHT22;37888;53.246;6.658;2023-05-29T03:16:44;7.80;99.90
51841;DHT22;37888;53.246;6.658;2023-05-29T03:19:11;7.80;99.90
51841;DHT22;37888;53.246;6.658;2023-05-29T03:21:36;7.80;99.90
51841;DHT22;37888;53.246;6.658;2023-05-29T03:24:02;7.90;99.90
51841;DHT22;37888;53.246;6.658;2023-05-29T03:26:28;7.90;99.90
51841;DHT22;37888;53.246;6.658;2023-05-29T03:28:54;7.80;99.90
51841;DHT22;37888;53.246;6.658;2023-05-29T03:31:20;7.80;99.90
51841;DHT22;37888;53.246;6.658;2023-05-29T03:33:47;7.80;99.90
51841;DHT22;37888;53.246;6.658;2023-05-29T03:36:16;7.90;99.90
51841;DHT22;37888;53.246;6.658;2023-05-29T03:38:45;7.90;99.90
51841;DHT22;37888;53.246;6.658;2023-05-29T03:41:11;8.00;99.90
51841;DHT22;37888;53.246;6.658;2023-05-29T03:43:37;8.10;99.90
51841;DHT22;37888;53.246;6.658;2023-05-29T03:46:03;8.10;99.90
51841;DHT22;37888;53.246;6.658;2023-05-29T03:48:29;8.20;99.90
51841;DHT22;37888;53.246;6.658;2023-05-29T03:50:55;8.30;99.90
51841;DHT22;37888;53.246;6.658;2023-05-29T03:53:21;8.30;99.90
51841;DHT22;37888;53.246;6.658;2023-05-29T03:55:46;8.40;99.90
51841;DHT22;37888;53.246;6.658;2023-05-29T03:58:13;8.50;99.90
51841;DHT22;37888;53.246;6.658;2023-05-29T04:00:39;8.50;99.90
51841;DHT22;37888;53.246;6.658;2023-05-29T04:03:05;8.50;99.90
51841;DHT22;37888;53.246;6.658;2023-05-29T04:05:31;8.60;99.90
51841;DHT22;37888;53.246;6.658;2023-05-29T04:07:57;8.70;99.90
51841;DHT22;37888;53.246;6.658;2023-05-29T04:10:23;8.70;99.90
51841;DHT22;37888;53.246;6.658;2023-05-29T04:12:50;8.80;99.90
51841;DHT22;37888;53.246;6.658;2023-05-29T04:15:16;8.80;99.90
51841;DHT22;37888;53.246;6.658;2023-05-29T04:17:42;8.90;99.90
51841;DHT22;37888;53.246;6.658;2023-05-29T04:20:08;8.90;99.90
51841;DHT22;37888;53.246;6.658;2023-05-29T04:22:38;9.00;99.90
51841;DHT22;37888;53.246;6.658;2023-05-29T04:25:04;9.00;99.90
51841;DHT22;37888;53.246;6.658;2023-05-29T04:27:31;9.10;99.90
51841;DHT22;37888;53.246;6.658;2023-05-29T04:30:07;9.10;99.90
51841;DHT22;37888;53.246;6.658;2023-05-29T04:32:33;9.20;99.90
51841;DHT22;37888;53.246;6.658;2023-05-29T04:35:02;9.20;99.90
51841;DHT22;37888;53.246;6.658;2023-05-29T04:37:30;9.30;99.90
51841;DHT22;37888;53.246;6.658;2023-05-29T04:39:57;9.30;99.90
51841;DHT22;37888;53.246;6.658;2023-05-29T04:42:23;9.30;99.90
51841;DHT22;37888;53.246;6.658;2023-05-29T04:44:51;9.30;99.90
51841;DHT22;37888;53.246;6.658;2023-05-29T04:47:18;9.30;99.90
51841;DHT22;37888;53.246;6.658;2023-05-29T04:49:45;9.30;99.90
51841;DHT22;37888;53.246;6.658;2023-05-29T04:52:15;9.40;99.90
51841;DHT22;37888;53.246;6.658;2023-05-29T04:54:41;9.40;99.90
51841;DHT22;37888;53.246;6.658;2023-05-29T04:57:07;9.40;99.90
51841;DHT22;37888;53.246;6.658;2023-05-29T04:59:34;9.50;99.90
51841;DHT22;37888;53.246;6.658;2023-05-29T05:02:00;9.50;99.90
51841;DHT22;37888;53.246;6.658;2023-05-29T05:04:26;9.60;99.90
51841;DHT22;37888;53.246;6.658;2023-05-29T05:06:52;9.70;99.90
51841;DHT22;37888;53.246;6.658;2023-05-29T05:09:18;9.80;99.90
51841;DHT22;37888;53.246;6.658;2023-05-29T05:11:43;10.00;99.90
51841;DHT22;37888;53.246;6.658;2023-05-29T05:14:09;10.10;99.90
51841;DHT22;37888;53.246;6.658;2023-05-29T05:16:35;10.20;99.90
51841;DHT22;37888;53.246;6.658;2023-05-29T05:19:01;10.30;99.90
51841;DHT22;37888;53.246;6.658;2023-05-29T05:21:26;10.50;99.90
51841;DHT22;37888;53.246;6.658;2023-05-29T05:23:52;10.60;99.90
51841;DHT22;37888;53.246;6.658;2023-05-29T05:26:18;10.70;99.90
51841;DHT22;37888;53.246;6.658;2023-05-29T05:28:44;10.80;99.90
51841;DHT22;37888;53.246;6.658;2023-05-29T05:31:10;10.80;99.90
51841;DHT22;37888;53.246;6.658;2023-05-29T05:33:36;10.80;99.90
51841;DHT22;37888;53.246;6.658;2023-05-29T05:36:02;10.80;99.90
51841;DHT22;37888;53.246;6.658;2023-05-29T05:38:28;10.90;99.90
51841;DHT22;37888;53.246;6.658;2023-05-29T05:40:54;10.90;99.90
51841;DHT22;37888;53.246;6.658;2023-05-29T05:43:22;11.00;99.90
51841;DHT22;37888;53.246;6.658;2023-05-29T05:45:48;11.10;99.90
51841;DHT22;37888;53.246;6.658;2023-05-29T05:48:14;11.20;99.90
51841;DHT22;37888;53.246;6.658;2023-05-29T05:50:39;11.20;99.90
51841;DHT22;37888;53.246;6.658;2023-05-29T05:53:06;11.30;99.90
51841;DHT22;37888;53.246;6.658;2023-05-29T05:55:32;11.50;99.90
51841;DHT22;37888;53.246;6.658;2023-05-29T05:57:57;11.70;99.90
51841;DHT22;37888;53.246;6.658;2023-05-29T06:00:23;12.00;99.90
51841;DHT22;37888;53.246;6.658;2023-05-29T06:02:55;12.40;99.90
51841;DHT22;37888;53.246;6.658;2023-05-29T06:05:21;12.90;99.90
51841;DHT22;37888;53.246;6.658;2023-05-29T06:07:47;13.20;99.90
51841;DHT22;37888;53.246;6.658;2023-05-29T06:10:13;13.40;99.90
51841;DHT22;37888;53.246;6.658;2023-05-29T06:12:39;13.50;99.90
51841;DHT22;37888;53.246;6.658;2023-05-29T06:15:06;13.70;99.90
51841;DHT22;37888;53.246;6.658;2023-05-29T06:17:34;13.90;99.90
51841;DHT22;37888;53.246;6.658;2023-05-29T06:20:00;13.90;99.90
51841;DHT22;37888;53.246;6.658;2023-05-29T06:22:26;13.80;99.90
51841;DHT22;37888;53.246;6.658;2023-05-29T06:24:52;13.70;99.90
51841;DHT22;37888;53.246;6.658;2023-05-29T06:27:17;13.50;99.90
51841;DHT22;37888;53.246;6.658;2023-05-29T06:29:44;13.30;99.90
51841;DHT22;37888;53.246;6.658;2023-05-29T06:32:09;13.10;99.90
51841;DHT22;37888;53.246;6.658;2023-05-29T06:34:35;13.00;99.90
51841;DHT22;37888;53.246;6.658;2023-05-29T06:37:01;13.00;99.90
51841;DHT22;37888;53.246;6.658;2023-05-29T06:39:27;13.10;99.90
51841;DHT22;37888;53.246;6.658;2023-05-29T06:41:53;13.20;99.90
51841;DHT22;37888;53.246;6.658;2023-05-29T06:44:18;13.10;99.90
51841;DHT22;37888;53.246;6.658;2023-05-29T06:46:44;13.20;99.90
51841;DHT22;37888;53.246;6.658;2023-05-29T06:49:10;13.30;99.90
51841;DHT22;37888;53.246;6.658;2023-05-29T06:51:36;13.30;99.90
51841;DHT22;37888;53.246;6.658;2023-05-29T06:54:01;13.20;99.90
51841;DHT22;37888;53.246;6.658;2023-05-29T06:56:27;13.00;99.90
51841;DHT22;37888;53.246;6.658;2023-05-29T06:58:53;13.20;99.90
51841;DHT22;37888;53.246;6.658;2023-05-29T07:01:19;13.40;99.90
51841;DHT22;37888;53.246;6.658;2023-05-29T07:03:46;13.50;99.90
51841;DHT22;37888;53.246;6.658;2023-05-29T07:06:16;13.60;99.90
51841;DHT22;37888;53.246;6.658;2023-05-29T07:08:42;13.60;99.90
51841;DHT22;37888;53.246;6.658;2023-05-29T07:11:08;13.70;99.90
51841;DHT22;37888;53.246;6.658;2023-05-29T07:13:34;14.00;99.90
51841;DHT22;37888;53.246;6.658;2023-05-29T07:16:01;14.30;99.90
51841;DHT22;37888;53.246;6.658;2023-05-29T07:18:26;14.30;99.90
51841;DHT22;37888;53.246;6.658;2023-05-29T07:20:53;14.40;99.90
51841;DHT22;37888;53.246;6.658;2023-05-29T07:23:19;14.60;99.90
51841;DHT22;37888;53.246;6.658;2023-05-29T07:25:45;14.90;99.90
51841;DHT22;37888;53.246;6.658;2023-05-29T07:28:10;15.30;99.90
51841;DHT22;37888;53.246;6.658;2023-05-29T07:30:36;15.90;99.90
51841;DHT22;37888;53.246;6.658;2023-05-29T07:33:02;16.10;99.90
51841;DHT22;37888;53.246;6.658;2023-05-29T07:35:27;15.80;99.90
51841;DHT22;37888;53.246;6.658;2023-05-29T07:37:53;15.80;99.90
51841;DHT22;37888;53.246;6.658;2023-05-29T07:40:19;16.00;99.90
51841;DHT22;37888;53.246;6.658;2023-05-29T07:42:45;16.40;99.90
51841;DHT22;37888;53.246;6.658;2023-05-29T07:45:11;16.60;99.90
51841;DHT22;37888;53.246;6.658;2023-05-29T07:47:36;16.80;99.90
51841;DHT22;37888;53.246;6.658;2023-05-29T07:50:02;16.90;99.90
51841;DHT22;37888;53.246;6.658;2023-05-29T07:52:28;17.10;99.90
51841;DHT22;37888;53.246;6.658;2023-05-29T07:54:54;17.30;99.90
51841;DHT22;37888;53.246;6.658;2023-05-29T07:57:20;17.40;99.90
51841;DHT22;37888;53.246;6.658;2023-05-29T07:59:46;17.40;99.90
51841;DHT22;37888;53.246;6.658;2023-05-29T08:04:41;17.30;99.90
51841;DHT22;37888;53.246;6.658;2023-05-29T08:07:07;17.10;99.90
51841;DHT22;37888;53.246;6.658;2023-05-29T08:09:35;16.70;99.90
51841;DHT22;37888;53.246;6.658;2023-05-29T08:12:01;16.20;99.90
51841;DHT22;37888;53.246;6.658;2023-05-29T08:14:27;16.00;99.90
51841;DHT22;37888;53.246;6.658;2023-05-29T08:16:53;15.80;99.90
51841;DHT22;37888;53.246;6.658;2023-05-29T08:19:19;15.50;99.90
51841;DHT22;37888;53.246;6.658;2023-05-29T08:21:45;15.50;99.90
51841;DHT22;37888;53.246;6.658;2023-05-29T08:24:11;15.30;99.90
51841;DHT22;37888;53.246;6.658;2023-05-29T08:26:37;15.20;99.90
51841;DHT22;37888;53.246;6.658;2023-05-29T08:29:03;15.10;99.90
51841;DHT22;37888;53.246;6.658;2023-05-29T08:31:31;15.00;99.90
51841;DHT22;37888;53.246;6.658;2023-05-29T08:33:57;15.00;99.90
51841;DHT22;37888;53.246;6.658;2023-05-29T08:36:24;14.90;99.90
51841;DHT22;37888;53.246;6.658;2023-05-29T08:38:51;14.80;99.90
51841;DHT22;37888;53.246;6.658;2023-05-29T08:44:22;14.80;99.90
51841;DHT22;37888;53.246;6.658;2023-05-29T08:46:55;14.70;99.90
51841;DHT22;37888;53.246;6.658;2023-05-29T08:49:21;14.50;99.90
51841;DHT22;37888;53.246;6.658;2023-05-29T08:52:18;14.30;99.90
51841;DHT22;37888;53.246;6.658;2023-05-29T08:54:43;14.20;99.90
51841;DHT22;37888;53.246;6.658;2023-05-29T08:57:10;14.40;99.90
51841;DHT22;37888;53.246;6.658;2023-05-29T08:59:40;14.60;99.90
51841;DHT22;37888;53.246;6.658;2023-05-29T09:02:07;14.70;99.90
51841;DHT22;37888;53.246;6.658;2023-05-29T09:04:33;14.80;99.90
51841;DHT22;37888;53.246;6.658;2023-05-29T09:06:59;14.90;99.90
51841;DHT22;37888;53.246;6.658;2023-05-29T09:09:29;15.00;99.90
51841;DHT22;37888;53.246;6.658;2023-05-29T09:11:57;15.10;99.90
51841;DHT22;37888;53.246;6.658;2023-05-29T09:14:41;15.10;99.90
51841;DHT22;37888;53.246;6.658;2023-05-29T09:17:09;15.00;99.90
51841;DHT22;37888;53.246;6.658;2023-05-29T09:19:36;15.00;99.90
51841;DHT22;37888;53.246;6.658;2023-05-29T09:22:12;15.10;99.90
51841;DHT22;37888;53.246;6.658;2023-05-29T09:24:50;15.20;99.90
51841;DHT22;37888;53.246;6.658;2023-05-29T09:27:17;15.20;99.90
51841;DHT22;37888;53.246;6.658;2023-05-29T09:29:45;15.30;99.90
51841;DHT22;37888;53.246;6.658;2023-05-29T09:32:18;15.40;99.90
51841;DHT22;37888;53.246;6.658;2023-05-29T09:34:44;15.40;99.90
51841;DHT22;37888;53.246;6.658;2023-05-29T09:37:11;15.40;99.90
51841;DHT22;37888;53.246;6.658;2023-05-29T09:39:50;15.30;99.90
51841;DHT22;37888;53.246;6.658;2023-05-29T09:42:17;15.50;99.90
51841;DHT22;37888;53.246;6.658;2023-05-29T09:44:46;15.50;99.90
51841;DHT22;37888;53.246;6.658;2023-05-29T09:47:17;15.50;99.90
51841;DHT22;37888;53.246;6.658;2023-05-29T09:49:46;15.70;99.90
51841;DHT22;37888;53.246;6.658;2023-05-29T09:52:13;15.70;99.90
51841;DHT22;37888;53.246;6.658;2023-05-29T09:54:45;15.70;99.90
51841;DHT22;37888;53.246;6.658;2023-05-29T09:57:13;15.80;99.90
51841;DHT22;37888;53.246;6.658;2023-05-29T09:59:42;15.90;99.90
51841;DHT22;37888;53.246;6.658;2023-05-29T10:02:11;16.00;99.90
51841;DHT22;37888;53.246;6.658;2023-05-29T10:04:37;16.10;99.90
51841;DHT22;37888;53.246;6.658;2023-05-29T10:09:54;16.20;99.90
51841;DHT22;37888;53.246;6.658;2023-05-29T10:12:21;16.20;99.90
51841;DHT22;37888;53.246;6.658;2023-05-29T10:14:49;16.40;99.90
51841;DHT22;37888;53.246;6.658;2023-05-29T10:17:18;16.40;99.90
51841;DHT22;37888;53.246;6.658;2023-05-29T10:19:47;16.50;99.90
51841;DHT22;37888;53.246;6.658;2023-05-29T10:22:16;16.50;99.90
51841;DHT22;37888;53.246;6.658;2023-05-29T10:24:46;16.50;99.90
51841;DHT22;37888;53.246;6.658;2023-05-29T10:27:14;16.50;99.90
51841;DHT22;37888;53.246;6.658;2023-05-29T10:29:53;16.40;99.90
51841;DHT22;37888;53.246;6.658;2023-05-29T10:32:41;16.10;99.90
51841;DHT22;37888;53.246;6.658;2023-05-29T10:35:25;16.20;99.90
51841;DHT22;37888;53.246;6.658;2023-05-29T10:38:02;16.10;99.90
51841;DHT22;37888;53.246;6.658;2023-05-29T10:40:35;16.00;99.90
51841;DHT22;37888;53.246;6.658;2023-05-29T10:43:01;16.00;99.90
51841;DHT22;37888;53.246;6.658;2023-05-29T10:50:37;16.40;99.90
51841;DHT22;37888;53.246;6.658;2023-05-29T10:53:10;16.50;99.90
51841;DHT22;37888;53.246;6.658;2023-05-29T10:55:40;16.30;99.90
51841;DHT22;37888;53.246;6.658;2023-05-29T10:58:07;16.10;99.90
51841;DHT22;37888;53.246;6.658;2023-05-29T11:00:40;16.10;99.90
51841;DHT22;37888;53.246;6.658;2023-05-29T11:03:09;16.20;99.90
51841;DHT22;37888;53.246;6.658;2023-05-29T11:11:38;16.10;99.90
51841;DHT22;37888;53.246;6.658;2023-05-29T11:14:08;16.00;99.90
51841;DHT22;37888;53.246;6.658;2023-05-29T11:16:37;16.00;99.90
51841;DHT22;37888;53.246;6.658;2023-05-29T11:19:37;15.90;99.90
51841;DHT22;37888;53.246;6.658;2023-05-29T11:22:18;15.70;99.90
51841;DHT22;37888;53.246;6.658;2023-05-29T11:24:48;15.60;99.90
51841;DHT22;37888;53.246;6.658;2023-05-29T11:27:19;15.50;99.90
51841;DHT22;37888;53.246;6.658;2023-05-29T11:29:45;15.50;99.90
51841;DHT22;37888;53.246;6.658;2023-05-29T11:32:16;15.70;99.90
51841;DHT22;37888;53.246;6.658;2023-05-29T11:34:43;15.80;99.90
51841;DHT22;37888;53.246;6.658;2023-05-29T11:40:11;16.00;99.90
51841;DHT22;37888;53.246;6.658;2023-05-29T11:42:46;16.10;99.90
51841;DHT22;37888;53.246;6.658;2023-05-29T11:45:23;16.10;99.90
51841;DHT22;37888;53.246;6.658;2023-05-29T11:48:01;16.10;99.90
51841;DHT22;37888;53.246;6.658;2023-05-29T11:50:45;16.10;99.90
51841;DHT22;37888;53.246;6.658;2023-05-29T11:53:19;15.90;99.90
51841;DHT22;37888;53.246;6.658;2023-05-29T11:55:46;15.90;99.90
51841;DHT22;37888;53.246;6.658;2023-05-29T11:58:12;16.00;99.90
51841;DHT22;37888;53.246;6.658;2023-05-29T12:00:42;16.00;99.90
51841;DHT22;37888;53.246;6.658;2023-05-29T12:03:08;16.00;99.90
51841;DHT22;37888;53.246;6.658;2023-05-29T12:08:11;16.00;99.90
51841;DHT22;37888;53.246;6.658;2023-05-29T12:10:47;15.90;99.90
51841;DHT22;37888;53.246;6.658;2023-05-29T12:13:19;15.90;99.90
51841;DHT22;37888;53.246;6.658;2023-05-29T12:15:53;15.80;99.90
51841;DHT22;37888;53.246;6.658;2023-05-29T12:18:21;15.90;99.90
51841;DHT22;37888;53.246;6.658;2023-05-29T12:21:08;15.90;99.90
51841;DHT22;37888;53.246;6.658;2023-05-29T12:23:50;15.90;99.90
51841;DHT22;37888;53.246;6.658;2023-05-29T12:26:30;15.70;99.90
51841;DHT22;37888;53.246;6.658;2023-05-29T12:28:56;15.60;99.90
51841;DHT22;37888;53.246;6.658;2023-05-29T12:31:28;15.60;99.90
51841;DHT22;37888;53.246;6.658;2023-05-29T12:34:01;15.60;99.90
51841;DHT22;37888;53.246;6.658;2023-05-29T12:36:27;15.60;99.90
51841;DHT22;37888;53.246;6.658;2023-05-29T12:38:53;15.70;99.90
51841;DHT22;37888;53.246;6.658;2023-05-29T12:41:41;15.70;99.90
51841;DHT22;37888;53.246;6.658;2023-05-29T12:44:16;15.70;99.90
51841;DHT22;37888;53.246;6.658;2023-05-29T12:46:47;15.70;99.90
51841;DHT22;37888;53.246;6.658;2023-05-29T12:49:13;15.70;99.90
51841;DHT22;37888;53.246;6.658;2023-05-29T12:51:55;15.60;99.90
51841;DHT22;37888;53.246;6.658;2023-05-29T12:54:30;15.60;99.90
51841;DHT22;37888;53.246;6.658;2023-05-29T12:57:01;15.50;99.90
51841;DHT22;37888;53.246;6.658;2023-05-29T12:59:28;15.50;99.90
51841;DHT22;37888;53.246;6.658;2023-05-29T13:01:57;15.40;99.90
51841;DHT22;37888;53.246;6.658;2023-05-29T13:04:24;15.40;99.90
51841;DHT22;37888;53.246;6.658;2023-05-29T13:06:49;15.40;99.90
51841;DHT22;37888;53.246;6.658;2023-05-29T13:09:18;15.40;99.90
51841;DHT22;37888;53.246;6.658;2023-05-29T13:11:53;15.40;99.90
51841;DHT22;37888;53.246;6.658;2023-05-29T13:14:30;15.40;99.90
51841;DHT22;37888;53.246;6.658;2023-05-29T13:16:56;15.40;99.90
51841;DHT22;37888;53.246;6.658;2023-05-29T13:19:21;15.40;99.90
51841;DHT22;37888;53.246;6.658;2023-05-29T13:22:05;15.40;99.90
51841;DHT22;37888;53.246;6.658;2023-05-29T13:24:35;15.40;99.90
51841;DHT22;37888;53.246;6.658;2023-05-29T13:27:01;15.30;99.90
51841;DHT22;37888;53.246;6.658;2023-05-29T13:29:46;15.20;99.90
51841;DHT22;37888;53.246;6.658;2023-05-29T13:32:14;15.20;99.90
51841;DHT22;37888;53.246;6.658;2023-05-29T13:34:43;15.10;99.90
51841;DHT22;37888;53.246;6.658;2023-05-29T13:37:26;15.10;99.90
51841;DHT22;37888;53.246;6.658;2023-05-29T13:39:54;15.00;99.90
51841;DHT22;37888;53.246;6.658;2023-05-29T13:42:20;15.00;99.90
51841;DHT22;37888;53.246;6.658;2023-05-29T13:44:50;15.00;99.90
51841;DHT22;37888;53.246;6.658;2023-05-29T13:47:16;14.90;99.90
51841;DHT22;37888;53.246;6.658;2023-05-29T13:49:43;14.90;99.90
51841;DHT22;37888;53.246;6.658;2023-05-29T13:52:09;14.90;99.90
51841;DHT22;37888;53.246;6.658;2023-05-29T13:54:34;14.90;99.90
51841;DHT22;37888;53.246;6.658;2023-05-29T13:57:13;14.90;99.90
51841;DHT22;37888;53.246;6.658;2023-05-29T13:59:42;14.90;99.90
51841;DHT22;37888;53.246;6.658;2023-05-29T14:02:08;14.90;99.90
51841;DHT22;37888;53.246;6.658;2023-05-29T14:04:34;14.90;99.90
51841;DHT22;37888;53.246;6.658;2023-05-29T14:07:01;14.90;99.90
51841;DHT22;37888;53.246;6.658;2023-05-29T14:09:28;14.80;99.90
51841;DHT22;37888;53.246;6.658;2023-05-29T14:12:15;14.80;99.90
51841;DHT22;37888;53.246;6.658;2023-05-29T14:14:43;14.80;99.90
51841;DHT22;37888;53.246;6.658;2023-05-29T14:17:32;14.80;99.90
51841;DHT22;37888;53.246;6.658;2023-05-29T14:19:59;14.80;99.90
51841;DHT22;37888;53.246;6.658;2023-05-29T14:22:30;14.80;99.90
51841;DHT22;37888;53.246;6.658;2023-05-29T14:25:14;14.70;99.90
51841;DHT22;37888;53.246;6.658;2023-05-29T14:27:53;14.70;99.90
51841;DHT22;37888;53.246;6.658;2023-05-29T14:30:19;14.60;99.90
51841;DHT22;37888;53.246;6.658;2023-05-29T14:32:45;14.60;99.90
51841;DHT22;37888;53.246;6.658;2023-05-29T14:35:31;14.70;99.90
51841;DHT22;37888;53.246;6.658;2023-05-29T14:37:58;14.60;99.90
51841;DHT22;37888;53.246;6.658;2023-05-29T14:40:24;14.70;99.90
51841;DHT22;37888;53.246;6.658;2023-05-29T14:42:54;14.60;99.90
51841;DHT22;37888;53.246;6.658;2023-05-29T14:45:28;14.60;99.90
51841;DHT22;37888;53.246;6.658;2023-05-29T14:48:06;14.70;99.90
51841;DHT22;37888;53.246;6.658;2023-05-29T14:50:35;14.60;99.90
51841;DHT22;37888;53.246;6.658;2023-05-29T14:53:00;14.60;99.90
51841;DHT22;37888;53.246;6.658;2023-05-29T14:55:26;14.60;99.90
51841;DHT22;37888;53.246;6.658;2023-05-29T14:57:55;14.60;99.90
51841;DHT22;37888;53.246;6.658;2023-05-29T15:00:21;14.60;99.90
51841;DHT22;37888;53.246;6.658;2023-05-29T15:02:48;14.60;99.90
51841;DHT22;37888;53.246;6.658;2023-05-29T15:05:14;14.60;99.90
51841;DHT22;37888;53.246;6.658;2023-05-29T15:07:46;14.60;99.90
51841;DHT22;37888;53.246;6.658;2023-05-29T15:10:12;14.60;99.90
51841;DHT22;37888;53.246;6.658;2023-05-29T15:12:46;14.60;99.90
51841;DHT22;37888;53.246;6.658;2023-05-29T15:15:15;14.70;99.90
51841;DHT22;37888;53.246;6.658;2023-05-29T15:17:50;14.60;99.90
51841;DHT22;37888;53.246;6.658;2023-05-29T15:20:24;14.60;99.90
51841;DHT22;37888;53.246;6.658;2023-05-29T15:23:02;14.60;99.90
51841;DHT22;37888;53.246;6.658;2023-05-29T15:25:31;14.60;99.90
51841;DHT22;37888;53.246;6.658;2023-05-29T15:27:57;14.60;99.90
51841;DHT22;37888;53.246;6.658;2023-05-29T15:30:33;14.60;99.90
51841;DHT22;37888;53.246;6.658;2023-05-29T15:33:08;14.70;99.90
51841;DHT22;37888;53.246;6.658;2023-05-29T15:35:39;14.60;99.90
51841;DHT22;37888;53.246;6.658;2023-05-29T15:38:18;14.60;99.90
51841;DHT22;37888;53.246;6.658;2023-05-29T15:40:58;14.40;99.90
51841;DHT22;37888;53.246;6.658;2023-05-29T15:43:24;14.20;99.90
51841;DHT22;37888;53.246;6.658;2023-05-29T15:45:53;14.10;99.90
51841;DHT22;37888;53.246;6.658;2023-05-29T15:48:26;14.00;99.90
51841;DHT22;37888;53.246;6.658;2023-05-29T15:50:56;13.90;99.90
51841;DHT22;37888;53.246;6.658;2023-05-29T15:53:22;13.90;99.90
51841;DHT22;37888;53.246;6.658;2023-05-29T15:55:49;13.90;99.90
51841;DHT22;37888;53.246;6.658;2023-05-29T15:58:21;13.90;99.90
51841;DHT22;37888;53.246;6.658;2023-05-29T16:00:51;13.90;99.90
51841;DHT22;37888;53.246;6.658;2023-05-29T16:03:17;14.00;99.90
51841;DHT22;37888;53.246;6.658;2023-05-29T16:05:43;14.00;99.90
51841;DHT22;37888;53.246;6.658;2023-05-29T16:08:09;14.10;99.90
51841;DHT22;37888;53.246;6.658;2023-05-29T16:10:35;14.10;99.90
51841;DHT22;37888;53.246;6.658;2023-05-29T16:13:03;14.10;99.90
51841;DHT22;37888;53.246;6.658;2023-05-29T16:15:29;14.10;99.90
51841;DHT22;37888;53.246;6.658;2023-05-29T16:17:58;14.10;99.90